sensor_id;sensor_type;location;lat;lon;timestamp;temperature;humidity
81311;DHT22;70779;52.506;5.492;2023-12-14T00:00:32;9.00;67.70
81311;DHT22;70779;52.506;5.492;2023-12-14T00:02:58;9.00;67.60
81311;DHT22;70779;52.506;5.492;2023-12-14T00:05:24;9.00;67.80
81311;DHT22;70779;52.506;5.492;2023-12-14T00:07:50;9.00;67.80
81311;DHT22;70779;52.506;5.492;2023-12-14T00:10:16;9.00;67.70
81311;DHT22;70779;52.506;5.492;2023-12-14T00:12:44;9.00;67.70
81311;DHT22;70779;52.506;5.492;2023-12-14T00:15:10;9.00;67.90
81311;DHT22;70779;52.506;5.492;2023-12-14T00:17:36;9.00;67.80
81311;DHT22;70779;52.506;5.492;2023-12-14T00:20:02;9.00;67.70
81311;DHT22;70779;52.506;5.492;2023-12-14T00:22:29;9.00;67.80
81311;DHT22;70779;52.506;5.492;2023-12-14T00:24:55;9.00;67.60
81311;DHT22;70779;52.506;5.492;2023-12-14T00:27:21;9.00;67.50
81311;DHT22;70779;52.506;5.492;2023-12-14T00:29:47;9.00;67.70
81311;DHT22;70779;52.506;5.492;2023-12-14T00:32:13;9.00;67.80
81311;DHT22;70779;52.506;5.492;2023-12-14T00:37:06;9.20;67.90
81311;DHT22;70779;52.506;5.492;2023-12-14T00:39:33;8.90;67.90
81311;DHT22;70779;52.506;5.492;2023-12-14T00:41:59;8.90;68.00
81311;DHT22;70779;52.506;5.492;2023-12-14T00:44:25;8.90;68.00
81311;DHT22;70779;52.506;5.492;2023-12-14T00:46:51;9.00;68.00
81311;DHT22;70779;52.506;5.492;2023-12-14T00:49:17;9.00;68.20
81311;DHT22;70779;52.506;5.492;2023-12-14T00:51:45;9.00;68.10
81311;DHT22;70779;52.506;5.492;2023-12-14T00:54:11;9.00;68.00
81311;DHT22;70779;52.506;5.492;2023-12-14T00:56:37;9.00;68.10
81311;DHT22;70779;52.506;5.492;2023-12-14T00:59:03;9.00;68.10
81311;DHT22;70779;52.506;5.492;2023-12-14T01:01:29;9.00;67.90
81311;DHT22;70779;52.506;5.492;2023-12-14T01:03:55;9.00;67.80
81311;DHT22;70779;52.506;5.492;2023-12-14T01:06:22;9.00;67.70
81311;DHT22;70779;52.506;5.492;2023-12-14T01:08:48;9.00;67.70
81311;DHT22;70779;52.506;5.492;2023-12-14T01:11:14;9.00;67.60
81311;DHT22;70779;52.506;5.492;2023-12-14T01:13:40;9.00;67.50
81311;DHT22;70779;52.506;5.492;2023-12-14T01:16:06;9.00;67.50
81311;DHT22;70779;52.506;5.492;2023-12-14T01:18:32;9.00;67.60
81311;DHT22;70779;52.506;5.492;2023-12-14T01:20:58;9.00;67.60
81311;DHT22;70779;52.506;5.492;2023-12-14T01:23:24;9.00;67.60
81311;DHT22;70779;52.506;5.492;2023-12-14T01:25:51;9.00;67.60
81311;DHT22;70779;52.506;5.492;2023-12-14T01:28:17;9.00;67.60
81311;DHT22;70779;52.506;5.492;2023-12-14T01:30:43;9.00;67.50
81311;DHT22;70779;52.506;5.492;2023-12-14T01:33:09;9.00;67.70
81311;DHT22;70779;52.506;5.492;2023-12-14T01:35:35;9.00;67.70
81311;DHT22;70779;52.506;5.492;2023-12-14T01:38:01;9.00;67.50
81311;DHT22;70779;52.506;5.492;2023-12-14T01:40:27;9.00;67.50
81311;DHT22;70779;52.506;5.492;2023-12-14T01:42:53;9.00;67.50
81311;DHT22;70779;52.506;5.492;2023-12-14T01:45:19;8.90;67.50
81311;DHT22;70779;52.506;5.492;2023-12-14T01:47:46;8.90;67.50
81311;DHT22;70779;52.506;5.492;2023-12-14T01:50:12;8.90;67.50
81311;DHT22;70779;52.506;5.492;2023-12-14T01:52:38;8.90;67.60
81311;DHT22;70779;52.506;5.492;2023-12-14T01:55:05;8.90;67.80
81311;DHT22;70779;52.506;5.492;2023-12-14T01:57:31;8.90;67.60
81311;DHT22;70779;52.506;5.492;2023-12-14T01:59:57;8.90;67.60
81311;DHT22;70779;52.506;5.492;2023-12-14T02:02:23;8.90;67.50
81311;DHT22;70779;52.506;5.492;2023-12-14T02:04:49;8.90;67.70
81311;DHT22;70779;52.506;5.492;2023-12-14T02:07:15;8.90;67.50
81311;DHT22;70779;52.506;5.492;2023-12-14T02:09:41;8.80;67.30
81311;DHT22;70779;52.506;5.492;2023-12-14T02:12:08;8.80;67.30
81311;DHT22;70779;52.506;5.492;2023-12-14T02:14:34;8.80;67.30
81311;DHT22;70779;52.506;5.492;2023-12-14T02:17:00;8.80;67.40
81311;DHT22;70779;52.506;5.492;2023-12-14T02:19:26;8.80;67.50
81311;DHT22;70779;52.506;5.492;2023-12-14T02:21:52;8.80;67.40
81311;DHT22;70779;52.506;5.492;2023-12-14T02:24:18;8.70;67.20
81311;DHT22;70779;52.506;5.492;2023-12-14T02:26:44;8.70;67.50
81311;DHT22;70779;52.506;5.492;2023-12-14T02:29:10;8.80;67.40
81311;DHT22;70779;52.506;5.492;2023-12-14T02:31:36;8.80;67.10
81311;DHT22;70779;52.506;5.492;2023-12-14T02:34:02;8.80;66.90
81311;DHT22;70779;52.506;5.492;2023-12-14T02:36:28;8.80;66.70
81311;DHT22;70779;52.506;5.492;2023-12-14T02:38:54;8.70;66.90
81311;DHT22;70779;52.506;5.492;2023-12-14T02:41:20;8.70;67.10
81311;DHT22;70779;52.506;5.492;2023-12-14T02:43:46;8.70;67.00
81311;DHT22;70779;52.506;5.492;2023-12-14T02:46:12;8.70;66.90
81311;DHT22;70779;52.506;5.492;2023-12-14T02:48:41;8.60;66.60
81311;DHT22;70779;52.506;5.492;2023-12-14T02:51:12;8.60;67.10
81311;DHT22;70779;52.506;5.492;2023-12-14T02:53:39;8.60;67.20
81311;DHT22;70779;52.506;5.492;2023-12-14T02:56:05;8.60;67.30
81311;DHT22;70779;52.506;5.492;2023-12-14T02:58:32;8.60;67.10
81311;DHT22;70779;52.506;5.492;2023-12-14T03:00:58;8.60;67.20
81311;DHT22;70779;52.506;5.492;2023-12-14T03:03:24;8.60;67.10
81311;DHT22;70779;52.506;5.492;2023-12-14T03:05:50;8.70;67.00
81311;DHT22;70779;52.506;5.492;2023-12-14T03:08:16;8.70;66.90
81311;DHT22;70779;52.506;5.492;2023-12-14T03:10:42;8.60;67.10
81311;DHT22;70779;52.506;5.492;2023-12-14T03:13:08;8.60;67.20
81311;DHT22;70779;52.506;5.492;2023-12-14T03:15:34;8.70;67.10
81311;DHT22;70779;52.506;5.492;2023-12-14T03:18:00;8.60;67.10
81311;DHT22;70779;52.506;5.492;2023-12-14T03:20:27;8.70;67.00
81311;DHT22;70779;52.506;5.492;2023-12-14T03:22:53;8.60;67.00
81311;DHT22;70779;52.506;5.492;2023-12-14T03:25:19;8.60;66.70
81311;DHT22;70779;52.506;5.492;2023-12-14T03:27:45;8.60;67.00
81311;DHT22;70779;52.506;5.492;2023-12-14T03:30:11;8.60;66.90
81311;DHT22;70779;52.506;5.492;2023-12-14T03:32:37;8.60;67.10
81311;DHT22;70779;52.506;5.492;2023-12-14T03:35:04;8.60;67.20
81311;DHT22;70779;52.506;5.492;2023-12-14T03:37:30;8.60;67.10
81311;DHT22;70779;52.506;5.492;2023-12-14T03:39:56;8.60;66.80
81311;DHT22;70779;52.506;5.492;2023-12-14T03:42:22;8.60;67.00
81311;DHT22;70779;52.506;5.492;2023-12-14T03:44:48;8.60;66.90
81311;DHT22;70779;52.506;5.492;2023-12-14T03:47:14;8.60;67.00
81311;DHT22;70779;52.506;5.492;2023-12-14T03:49:40;8.60;66.90
81311;DHT22;70779;52.506;5.492;2023-12-14T03:52:08;8.60;66.80
81311;DHT22;70779;52.506;5.492;2023-12-14T03:54:34;8.60;66.80
81311;DHT22;70779;52.506;5.492;2023-12-14T03:57:00;8.60;66.60
81311;DHT22;70779;52.506;5.492;2023-12-14T03:59:26;8.60;66.30
81311;DHT22;70779;52.506;5.492;2023-12-14T04:01:52;8.60;66.60
81311;DHT22;70779;52.506;5.492;2023-12-14T04:04:18;8.60;66.50
81311;DHT22;70779;52.506;5.492;2023-12-14T04:06:44;8.50;66.40
81311;DHT22;70779;52.506;5.492;2023-12-14T04:09:10;8.50;66.40
81311;DHT22;70779;52.506;5.492;2023-12-14T04:11:37;8.50;66.20
81311;DHT22;70779;52.506;5.492;2023-12-14T04:14:03;8.50;66.40
81311;DHT22;70779;52.506;5.492;2023-12-14T04:16:29;8.60;66.20
81311;DHT22;70779;52.506;5.492;2023-12-14T04:18:55;8.60;66.20
81311;DHT22;70779;52.506;5.492;2023-12-14T04:21:22;8.60;65.90
81311;DHT22;70779;52.506;5.492;2023-12-14T04:23:48;8.60;65.70
81311;DHT22;70779;52.506;5.492;2023-12-14T04:26:14;8.60;65.50
81311;DHT22;70779;52.506;5.492;2023-12-14T04:28:41;8.50;65.60
81311;DHT22;70779;52.506;5.492;2023-12-14T04:31:09;8.50;65.00
81311;DHT22;70779;52.506;5.492;2023-12-14T04:33:36;8.40;65.60
81311;DHT22;70779;52.506;5.492;2023-12-14T04:36:03;8.40;65.50
81311;DHT22;70779;52.506;5.492;2023-12-14T04:38:29;8.40;65.10
81311;DHT22;70779;52.506;5.492;2023-12-14T04:40:55;8.30;65.30
81311;DHT22;70779;52.506;5.492;2023-12-14T04:43:21;8.40;65.40
81311;DHT22;70779;52.506;5.492;2023-12-14T04:45:47;8.30;65.40
81311;DHT22;70779;52.506;5.492;2023-12-14T04:48:13;8.30;65.40
81311;DHT22;70779;52.506;5.492;2023-12-14T04:50:39;8.30;65.20
81311;DHT22;70779;52.506;5.492;2023-12-14T04:53:05;8.30;65.20
81311;DHT22;70779;52.506;5.492;2023-12-14T04:55:31;8.30;65.10
81311;DHT22;70779;52.506;5.492;2023-12-14T04:57:57;8.30;65.20
81311;DHT22;70779;52.506;5.492;2023-12-14T05:00:23;8.30;65.30
81311;DHT22;70779;52.506;5.492;2023-12-14T05:02:49;8.30;65.30
81311;DHT22;70779;52.506;5.492;2023-12-14T05:05:16;8.30;65.20
81311;DHT22;70779;52.506;5.492;2023-12-14T05:07:42;8.30;65.10
81311;DHT22;70779;52.506;5.492;2023-12-14T05:10:08;8.30;65.10
81311;DHT22;70779;52.506;5.492;2023-12-14T05:12:35;8.20;65.10
81311;DHT22;70779;52.506;5.492;2023-12-14T05:15:02;8.20;65.10
81311;DHT22;70779;52.506;5.492;2023-12-14T05:17:28;8.20;65.40
81311;DHT22;70779;52.506;5.492;2023-12-14T05:19:54;8.30;64.60
81311;DHT22;70779;52.506;5.492;2023-12-14T05:22:20;8.20;65.30
81311;DHT22;70779;52.506;5.492;2023-12-14T05:24:47;8.20;65.10
81311;DHT22;70779;52.506;5.492;2023-12-14T05:27:13;8.20;64.80
81311;DHT22;70779;52.506;5.492;2023-12-14T05:29:40;8.20;65.00
81311;DHT22;70779;52.506;5.492;2023-12-14T05:32:06;8.20;65.10
81311;DHT22;70779;52.506;5.492;2023-12-14T05:34:32;8.20;65.20
81311;DHT22;70779;52.506;5.492;2023-12-14T05:36:58;8.20;65.10
81311;DHT22;70779;52.506;5.492;2023-12-14T05:39:24;8.20;65.00
81311;DHT22;70779;52.506;5.492;2023-12-14T05:41:50;8.30;65.20
81311;DHT22;70779;52.506;5.492;2023-12-14T05:44:16;8.30;65.20
81311;DHT22;70779;52.506;5.492;2023-12-14T05:46:42;8.30;65.10
81311;DHT22;70779;52.506;5.492;2023-12-14T05:49:09;8.30;65.10
81311;DHT22;70779;52.506;5.492;2023-12-14T05:51:35;8.30;65.00
81311;DHT22;70779;52.506;5.492;2023-12-14T05:54:01;8.30;65.30
81311;DHT22;70779;52.506;5.492;2023-12-14T05:56:27;8.30;65.30
81311;DHT22;70779;52.506;5.492;2023-12-14T05:58:53;8.30;65.00
81311;DHT22;70779;52.506;5.492;2023-12-14T06:01:20;8.40;65.10
81311;DHT22;70779;52.506;5.492;2023-12-14T06:03:46;8.40;65.00
81311;DHT22;70779;52.506;5.492;2023-12-14T06:06:13;8.40;65.10
81311;DHT22;70779;52.506;5.492;2023-12-14T06:08:42;8.40;65.00
81311;DHT22;70779;52.506;5.492;2023-12-14T06:11:08;8.30;65.10
81311;DHT22;70779;52.506;5.492;2023-12-14T06:13:35;8.40;65.20
81311;DHT22;70779;52.506;5.492;2023-12-14T06:16:01;8.40;65.30
81311;DHT22;70779;52.506;5.492;2023-12-14T06:18:27;8.40;65.20
81311;DHT22;70779;52.506;5.492;2023-12-14T06:20:53;8.50;65.20
81311;DHT22;70779;52.506;5.492;2023-12-14T06:23:19;8.50;65.20
81311;DHT22;70779;52.506;5.492;2023-12-14T06:25:45;8.50;65.30
81311;DHT22;70779;52.506;5.492;2023-12-14T06:28:11;8.60;65.30
81311;DHT22;70779;52.506;5.492;2023-12-14T06:30:38;8.60;64.90
81311;DHT22;70779;52.506;5.492;2023-12-14T06:33:04;8.60;65.20
81311;DHT22;70779;52.506;5.492;2023-12-14T06:35:30;8.60;64.80
81311;DHT22;70779;52.506;5.492;2023-12-14T06:37:56;8.60;64.80
81311;DHT22;70779;52.506;5.492;2023-12-14T06:40:22;8.60;64.80
81311;DHT22;70779;52.506;5.492;2023-12-14T06:42:48;8.60;64.90
81311;DHT22;70779;52.506;5.492;2023-12-14T06:45:15;8.60;64.90
81311;DHT22;70779;52.506;5.492;2023-12-14T06:47:41;8.60;64.90
81311;DHT22;70779;52.506;5.492;2023-12-14T06:50:09;8.70;64.40
81311;DHT22;70779;52.506;5.492;2023-12-14T06:52:35;8.70;64.80
81311;DHT22;70779;52.506;5.492;2023-12-14T06:55:02;8.70;64.70
81311;DHT22;70779;52.506;5.492;2023-12-14T06:57:28;8.70;64.40
81311;DHT22;70779;52.506;5.492;2023-12-14T06:59:55;8.60;63.80
81311;DHT22;70779;52.506;5.492;2023-12-14T07:02:21;8.70;64.10
81311;DHT22;70779;52.506;5.492;2023-12-14T07:04:47;8.70;64.00
81311;DHT22;70779;52.506;5.492;2023-12-14T07:07:13;8.60;64.20
81311;DHT22;70779;52.506;5.492;2023-12-14T07:09:39;8.70;64.00
81311;DHT22;70779;52.506;5.492;2023-12-14T07:12:05;8.60;63.80
81311;DHT22;70779;52.506;5.492;2023-12-14T07:14:31;8.60;63.60
81311;DHT22;70779;52.506;5.492;2023-12-14T07:16:57;8.60;63.60
81311;DHT22;70779;52.506;5.492;2023-12-14T07:19:23;8.60;63.70
81311;DHT22;70779;52.506;5.492;2023-12-14T07:21:49;8.60;63.80
81311;DHT22;70779;52.506;5.492;2023-12-14T07:24:15;8.50;63.20
81311;DHT22;70779;52.506;5.492;2023-12-14T07:26:42;8.50;63.50
81311;DHT22;70779;52.506;5.492;2023-12-14T07:29:08;8.50;63.70
81311;DHT22;70779;52.506;5.492;2023-12-14T07:31:34;8.50;63.90
81311;DHT22;70779;52.506;5.492;2023-12-14T07:34:00;8.50;64.00
81311;DHT22;70779;52.506;5.492;2023-12-14T07:36:26;8.40;63.60
81311;DHT22;70779;52.506;5.492;2023-12-14T07:38:52;8.50;63.80
81311;DHT22;70779;52.506;5.492;2023-12-14T07:41:19;8.50;63.60
81311;DHT22;70779;52.506;5.492;2023-12-14T07:43:46;8.50;63.70
81311;DHT22;70779;52.506;5.492;2023-12-14T07:46:12;8.50;63.80
81311;DHT22;70779;52.506;5.492;2023-12-14T07:48:38;8.50;63.70
81311;DHT22;70779;52.506;5.492;2023-12-14T07:51:04;8.50;63.90
81311;DHT22;70779;52.506;5.492;2023-12-14T07:53:30;8.50;63.90
81311;DHT22;70779;52.506;5.492;2023-12-14T07:55:56;8.50;64.00
81311;DHT22;70779;52.506;5.492;2023-12-14T07:58:24;8.60;64.10
81311;DHT22;70779;52.506;5.492;2023-12-14T08:00:51;8.60;64.30
81311;DHT22;70779;52.506;5.492;2023-12-14T08:03:17;8.60;64.20
81311;DHT22;70779;52.506;5.492;2023-12-14T08:05:44;8.70;64.30
81311;DHT22;70779;52.506;5.492;2023-12-14T08:08:10;8.80;64.40
81311;DHT22;70779;52.506;5.492;2023-12-14T08:10:36;8.80;64.40
81311;DHT22;70779;52.506;5.492;2023-12-14T08:13:02;8.90;64.40
81311;DHT22;70779;52.506;5.492;2023-12-14T08:15:28;8.90;64.30
81311;DHT22;70779;52.506;5.492;2023-12-14T08:17:54;8.90;64.40
81311;DHT22;70779;52.506;5.492;2023-12-14T08:20:20;8.90;64.20
81311;DHT22;70779;52.506;5.492;2023-12-14T08:22:46;9.00;64.10
81311;DHT22;70779;52.506;5.492;2023-12-14T08:25:13;8.90;63.40
81311;DHT22;70779;52.506;5.492;2023-12-14T08:27:41;8.90;63.80
81311;DHT22;70779;52.506;5.492;2023-12-14T08:30:07;8.90;64.00
81311;DHT22;70779;52.506;5.492;2023-12-14T08:32:34;8.90;63.90
81311;DHT22;70779;52.506;5.492;2023-12-14T08:35:00;8.90;63.80
81311;DHT22;70779;52.506;5.492;2023-12-14T08:37:26;8.90;63.70
81311;DHT22;70779;52.506;5.492;2023-12-14T08:39:52;8.90;63.80
81311;DHT22;70779;52.506;5.492;2023-12-14T08:42:18;8.90;63.70
81311;DHT22;70779;52.506;5.492;2023-12-14T08:44:45;8.90;63.70
81311;DHT22;70779;52.506;5.492;2023-12-14T08:47:11;8.90;63.70
81311;DHT22;70779;52.506;5.492;2023-12-14T08:49:37;8.90;63.70
81311;DHT22;70779;52.506;5.492;2023-12-14T08:52:03;9.00;63.90
81311;DHT22;70779;52.506;5.492;2023-12-14T08:54:30;9.00;63.80
81311;DHT22;70779;52.506;5.492;2023-12-14T08:56:56;9.00;63.90
81311;DHT22;70779;52.506;5.492;2023-12-14T08:59:22;9.00;64.00
81311;DHT22;70779;52.506;5.492;2023-12-14T09:01:48;9.00;63.90
81311;DHT22;70779;52.506;5.492;2023-12-14T09:04:14;9.00;64.00
81311;DHT22;70779;52.506;5.492;2023-12-14T09:06:41;9.00;63.90
81311;DHT22;70779;52.506;5.492;2023-12-14T09:09:11;9.00;64.20
81311;DHT22;70779;52.506;5.492;2023-12-14T09:11:37;9.00;64.30
81311;DHT22;70779;52.506;5.492;2023-12-14T09:14:03;9.00;64.30
81311;DHT22;70779;52.506;5.492;2023-12-14T09:16:30;9.00;64.20
81311;DHT22;70779;52.506;5.492;2023-12-14T09:18:56;9.10;64.50
81311;DHT22;70779;52.506;5.492;2023-12-14T09:21:22;9.20;64.50
81311;DHT22;70779;52.506;5.492;2023-12-14T09:23:48;9.20;64.60
81311;DHT22;70779;52.506;5.492;2023-12-14T09:26:14;9.20;64.50
81311;DHT22;70779;52.506;5.492;2023-12-14T09:28:40;9.30;64.30
81311;DHT22;70779;52.506;5.492;2023-12-14T09:31:08;9.30;64.30
81311;DHT22;70779;52.506;5.492;2023-12-14T09:33:34;9.30;64.10
81311;DHT22;70779;52.506;5.492;2023-12-14T09:36:00;9.20;63.90
81311;DHT22;70779;52.506;5.492;2023-12-14T09:38:26;9.20;63.70
81311;DHT22;70779;52.506;5.492;2023-12-14T09:40:52;9.10;63.70
81311;DHT22;70779;52.506;5.492;2023-12-14T09:43:18;9.00;63.30
81311;DHT22;70779;52.506;5.492;2023-12-14T09:45:45;9.00;63.40
81311;DHT22;70779;52.506;5.492;2023-12-14T09:48:12;9.00;64.00
81311;DHT22;70779;52.506;5.492;2023-12-14T09:50:39;9.20;63.40
81311;DHT22;70779;52.506;5.492;2023-12-14T09:53:06;9.20;63.60
81311;DHT22;70779;52.506;5.492;2023-12-14T09:55:33;9.40;63.40
81311;DHT22;70779;52.506;5.492;2023-12-14T09:58:00;9.50;63.70
81311;DHT22;70779;52.506;5.492;2023-12-14T10:00:36;9.70;63.50
81311;DHT22;70779;52.506;5.492;2023-12-14T10:03:22;10.00;62.70
81311;DHT22;70779;52.506;5.492;2023-12-14T10:05:50;10.20;62.60
81311;DHT22;70779;52.506;5.492;2023-12-14T10:08:16;10.30;62.70
81311;DHT22;70779;52.506;5.492;2023-12-14T10:10:43;10.50;62.30
81311;DHT22;70779;52.506;5.492;2023-12-14T10:13:09;10.50;61.70
81311;DHT22;70779;52.506;5.492;2023-12-14T10:15:43;10.60;60.30
81311;DHT22;70779;52.506;5.492;2023-12-14T10:18:09;10.60;59.70
81311;DHT22;70779;52.506;5.492;2023-12-14T10:20:35;10.60;59.40
81311;DHT22;70779;52.506;5.492;2023-12-14T10:23:05;10.60;59.60
81311;DHT22;70779;52.506;5.492;2023-12-14T10:25:31;10.60;60.30
81311;DHT22;70779;52.506;5.492;2023-12-14T10:27:57;10.60;58.90
81311;DHT22;70779;52.506;5.492;2023-12-14T10:30:27;10.60;59.90
81311;DHT22;70779;52.506;5.492;2023-12-14T10:32:53;10.60;60.20
81311;DHT22;70779;52.506;5.492;2023-12-14T10:35:20;10.70;60.20
81311;DHT22;70779;52.506;5.492;2023-12-14T10:37:51;10.90;60.40
81311;DHT22;70779;52.506;5.492;2023-12-14T10:40:18;11.00;60.20
81311;DHT22;70779;52.506;5.492;2023-12-14T10:42:44;11.00;59.90
81311;DHT22;70779;52.506;5.492;2023-12-14T10:45:14;11.00;60.30
81311;DHT22;70779;52.506;5.492;2023-12-14T10:47:46;11.00;60.40
81311;DHT22;70779;52.506;5.492;2023-12-14T10:50:14;11.10;60.50
81311;DHT22;70779;52.506;5.492;2023-12-14T10:52:41;11.10;60.70
81311;DHT22;70779;52.506;5.492;2023-12-14T10:55:11;11.10;60.60
81311;DHT22;70779;52.506;5.492;2023-12-14T10:57:38;11.10;60.40
81311;DHT22;70779;52.506;5.492;2023-12-14T11:00:04;11.00;60.10
81311;DHT22;70779;52.506;5.492;2023-12-14T11:02:41;11.00;60.30
81311;DHT22;70779;52.506;5.492;2023-12-14T11:05:15;11.00;60.40
81311;DHT22;70779;52.506;5.492;2023-12-14T11:07:43;11.00;60.50
81311;DHT22;70779;52.506;5.492;2023-12-14T11:10:10;10.90;60.70
81311;DHT22;70779;52.506;5.492;2023-12-14T11:12:37;10.90;60.70
81311;DHT22;70779;52.506;5.492;2023-12-14T11:15:07;10.90;60.70
81311;DHT22;70779;52.506;5.492;2023-12-14T11:17:33;10.90;60.70
81311;DHT22;70779;52.506;5.492;2023-12-14T11:20:24;10.90;60.80
81311;DHT22;70779;52.506;5.492;2023-12-14T11:22:51;10.90;60.60
81311;DHT22;70779;52.506;5.492;2023-12-14T11:25:23;10.80;60.70
81311;DHT22;70779;52.506;5.492;2023-12-14T11:27:50;10.80;60.80
81311;DHT22;70779;52.506;5.492;2023-12-14T11:30:16;10.70;61.10
81311;DHT22;70779;52.506;5.492;2023-12-14T11:32:42;10.70;61.10
81311;DHT22;70779;52.506;5.492;2023-12-14T11:35:08;10.60;61.10
81311;DHT22;70779;52.506;5.492;2023-12-14T11:37:38;10.60;61.10
81311;DHT22;70779;52.506;5.492;2023-12-14T11:40:07;10.50;61.20
81311;DHT22;70779;52.506;5.492;2023-12-14T11:42:33;10.50;61.40
81311;DHT22;70779;52.506;5.492;2023-12-14T11:44:59;10.40;61.60
81311;DHT22;70779;52.506;5.492;2023-12-14T11:47:25;10.40;61.70
81311;DHT22;70779;52.506;5.492;2023-12-14T11:49:51;10.40;61.80
81311;DHT22;70779;52.506;5.492;2023-12-14T11:52:18;10.40;61.90
81311;DHT22;70779;52.506;5.492;2023-12-14T11:54:44;10.40;61.90
81311;DHT22;70779;52.506;5.492;2023-12-14T11:57:10;10.40;61.90
81311;DHT22;70779;52.506;5.492;2023-12-14T11:59:37;10.50;62.00
81311;DHT22;70779;52.506;5.492;2023-12-14T12:02:03;10.50;62.10
81311;DHT22;70779;52.506;5.492;2023-12-14T12:04:29;10.50;62.00
81311;DHT22;70779;52.506;5.492;2023-12-14T12:07:03;10.50;62.10
81311;DHT22;70779;52.506;5.492;2023-12-14T12:09:41;10.50;62.10
81311;DHT22;70779;52.506;5.492;2023-12-14T12:12:11;10.50;62.00
81311;DHT22;70779;52.506;5.492;2023-12-14T12:14:39;10.50;62.00
81311;DHT22;70779;52.506;5.492;2023-12-14T12:17:06;10.60;62.00
81311;DHT22;70779;52.506;5.492;2023-12-14T12:19:37;10.50;62.10
81311;DHT22;70779;52.506;5.492;2023-12-14T12:22:04;10.60;62.10
81311;DHT22;70779;52.506;5.492;2023-12-14T12:24:30;10.60;62.10
81311;DHT22;70779;52.506;5.492;2023-12-14T12:26:56;10.60;62.10
81311;DHT22;70779;52.506;5.492;2023-12-14T12:29:23;10.60;62.20
81311;DHT22;70779;52.506;5.492;2023-12-14T12:31:49;10.60;62.20
81311;DHT22;70779;52.506;5.492;2023-12-14T12:34:15;10.70;62.20
81311;DHT22;70779;52.506;5.492;2023-12-14T12:36:41;10.70;61.90
81311;DHT22;70779;52.506;5.492;2023-12-14T12:39:07;10.70;61.80
81311;DHT22;70779;52.506;5.492;2023-12-14T12:41:35;10.60;61.90
81311;DHT22;70779;52.506;5.492;2023-12-14T12:44:04;10.60;62.10
81311;DHT22;70779;52.506;5.492;2023-12-14T12:46:35;10.60;62.00
81311;DHT22;70779;52.506;5.492;2023-12-14T12:49:02;10.50;62.10
81311;DHT22;70779;52.506;5.492;2023-12-14T12:51:28;10.50;62.00
81311;DHT22;70779;52.506;5.492;2023-12-14T12:53:56;10.50;61.80
81311;DHT22;70779;52.506;5.492;2023-12-14T12:56:26;10.50;62.00
81311;DHT22;70779;52.506;5.492;2023-12-14T12:58:54;10.50;61.90
81311;DHT22;70779;52.506;5.492;2023-12-14T13:01:23;10.40;61.90
81311;DHT22;70779;52.506;5.492;2023-12-14T13:03:55;10.40;62.00
81311;DHT22;70779;52.506;5.492;2023-12-14T13:06:25;10.40;62.10
81311;DHT22;70779;52.506;5.492;2023-12-14T13:08:52;10.40;62.10
81311;DHT22;70779;52.506;5.492;2023-12-14T13:11:18;10.40;62.10
81311;DHT22;70779;52.506;5.492;2023-12-14T13:13:44;10.40;62.10
81311;DHT22;70779;52.506;5.492;2023-12-14T13:16:11;10.40;62.10
81311;DHT22;70779;52.506;5.492;2023-12-14T13:18:40;10.40;62.00
81311;DHT22;70779;52.506;5.492;2023-12-14T13:21:06;10.30;62.00
81311;DHT22;70779;52.506;5.492;2023-12-14T13:23:32;10.30;62.10
81311;DHT22;70779;52.506;5.492;2023-12-14T13:25:59;10.30;62.00
81311;DHT22;70779;52.506;5.492;2023-12-14T13:28:25;10.40;62.10
81311;DHT22;70779;52.506;5.492;2023-12-14T13:30:51;10.40;61.80
81311;DHT22;70779;52.506;5.492;2023-12-14T13:33:17;10.40;61.80
81311;DHT22;70779;52.506;5.492;2023-12-14T13:35:43;10.30;61.90
81311;DHT22;70779;52.506;5.492;2023-12-14T13:38:09;10.30;62.20
81311;DHT22;70779;52.506;5.492;2023-12-14T13:40:35;10.40;62.10
81311;DHT22;70779;52.506;5.492;2023-12-14T13:43:01;10.40;62.20
81311;DHT22;70779;52.506;5.492;2023-12-14T13:45:37;10.50;62.20
81311;DHT22;70779;52.506;5.492;2023-12-14T13:48:04;10.50;62.10
81311;DHT22;70779;52.506;5.492;2023-12-14T13:50:30;10.50;61.90
81311;DHT22;70779;52.506;5.492;2023-12-14T13:52:56;10.50;62.00
81311;DHT22;70779;52.506;5.492;2023-12-14T13:55:22;10.60;62.10
81311;DHT22;70779;52.506;5.492;2023-12-14T13:57:48;10.60;62.00
81311;DHT22;70779;52.506;5.492;2023-12-14T14:00:15;10.60;62.10
81311;DHT22;70779;52.506;5.492;2023-12-14T14:02:42;10.60;62.00
81311;DHT22;70779;52.506;5.492;2023-12-14T14:05:08;10.60;62.10
81311;DHT22;70779;52.506;5.492;2023-12-14T14:07:34;10.60;62.10
81311;DHT22;70779;52.506;5.492;2023-12-14T14:10:00;10.70;62.20
81311;DHT22;70779;52.506;5.492;2023-12-14T14:12:26;10.70;62.10
81311;DHT22;70779;52.506;5.492;2023-12-14T14:14:52;10.70;61.90
81311;DHT22;70779;52.506;5.492;2023-12-14T14:17:18;10.60;61.90
81311;DHT22;70779;52.506;5.492;2023-12-14T14:19:45;10.60;62.00
81311;DHT22;70779;52.506;5.492;2023-12-14T14:22:11;10.60;62.00
81311;DHT22;70779;52.506;5.492;2023-12-14T14:24:37;10.50;62.10
81311;DHT22;70779;52.506;5.492;2023-12-14T14:27:03;10.50;62.20
81311;DHT22;70779;52.506;5.492;2023-12-14T14:29:30;10.60;62.30
81311;DHT22;70779;52.506;5.492;2023-12-14T14:31:56;10.60;62.30
81311;DHT22;70779;52.506;5.492;2023-12-14T14:34:22;10.60;62.30
81311;DHT22;70779;52.506;5.492;2023-12-14T14:36:48;10.50;62.40
81311;DHT22;70779;52.506;5.492;2023-12-14T14:39:14;10.60;62.50
81311;DHT22;70779;52.506;5.492;2023-12-14T14:41:44;10.60;62.50
81311;DHT22;70779;52.506;5.492;2023-12-14T14:44:11;10.60;62.50
81311;DHT22;70779;52.506;5.492;2023-12-14T14:49:17;10.50;62.30
81311;DHT22;70779;52.506;5.492;2023-12-14T14:51:43;10.50;62.30
81311;DHT22;70779;52.506;5.492;2023-12-14T14:54:09;10.50;62.50
81311;DHT22;70779;52.506;5.492;2023-12-14T14:56:35;10.50;62.50
81311;DHT22;70779;52.506;5.492;2023-12-14T14:59:01;10.40;62.50
81311;DHT22;70779;52.506;5.492;2023-12-14T15:01:27;10.40;62.60
81311;DHT22;70779;52.506;5.492;2023-12-14T15:03:54;10.30;62.70
81311;DHT22;70779;52.506;5.492;2023-12-14T15:06:20;10.30;62.90
81311;DHT22;70779;52.506;5.492;2023-12-14T15:08:48;10.30;62.90
81311;DHT22;70779;52.506;5.492;2023-12-14T15:11:14;10.30;62.90
81311;DHT22;70779;52.506;5.492;2023-12-14T15:13:40;10.30;62.70
81311;DHT22;70779;52.506;5.492;2023-12-14T15:16:07;10.20;62.80
81311;DHT22;70779;52.506;5.492;2023-12-14T15:18:34;10.20;62.90
81311;DHT22;70779;52.506;5.492;2023-12-14T15:21:10;10.20;62.80
81311;DHT22;70779;52.506;5.492;2023-12-14T15:23:37;10.10;63.20
81311;DHT22;70779;52.506;5.492;2023-12-14T15:26:05;10.10;63.30
81311;DHT22;70779;52.506;5.492;2023-12-14T15:28:31;10.00;63.60
81311;DHT22;70779;52.506;5.492;2023-12-14T15:30:57;10.00;64.00
81311;DHT22;70779;52.506;5.492;2023-12-14T15:33:23;9.90;64.10
81311;DHT22;70779;52.506;5.492;2023-12-14T15:35:51;9.80;64.30
81311;DHT22;70779;52.506;5.492;2023-12-14T15:38:17;9.80;64.50
81311;DHT22;70779;52.506;5.492;2023-12-14T15:40:43;9.80;64.70